Time;durP1;ratioP1;P1;durP2;ratioP2;P2;SDS_P1;SDS_P2;PMS_P1;PMS_P2;Temp;Humidity;BMP_temperature;BMP_pressure;BME280_temperature;BME280_humidity;BME280_pressure;Samples;Min_cycle;Max_cycle;Signal;HPM_P1;HPM_P2
2023/10/14 00:00:26;;;;;;;9.18;3.10;;;;;;;-145.68;40.88;71929.06;10473099;28;20187;-68
2023/10/14 00:05:27;;;;;;;9.48;3.25;;;;;;;-145.68;40.86;71935.03;10472536;28;20248;-67
2023/10/14 00:10:33;;;;;;;8.00;3.10;;;;;;;-145.68;40.90;71917.06;10472922;28;20244;-68
2023/10/14 00:15:34;;;;;;;13.90;3.22;;;;;;;-145.68;41.06;71933.03;10472449;28;20204;-67
2023/10/14 00:20:35;;;;;;;6.82;3.20;;;;;;;-145.68;41.13;71937.03;10473023;28;20192;-68
2023/10/14 00:25:36;;;;;;;12.88;3.05;;;;;;;-145.68;41.10;71935.03;10472210;28;20238;-68
2023/10/14 00:30:38;;;;;;;10.02;3.00;;;;;;;-145.68;41.01;71927.06;10472354;28;20218;-68
2023/10/14 00:35:41;;;;;;;11.93;3.10;;;;;;;-145.68;41.43;71949.03;10472406;28;20695;-68
2023/10/14 00:40:45;;;;;;;7.53;3.08;;;;;;;-145.68;41.36;71937.03;10471991;28;20188;-68
2023/10/14 00:45:47;;;;;;;10.45;3.05;;;;;;;-145.68;41.59;71969.00;10465336;28;20235;-67
2023/10/14 00:50:50;;;;;;;6.63;2.58;;;;;;;-145.68;41.13;71931.06;10470589;28;20231;-67
2023/10/14 01:00:57;;;;;;;10.40;3.42;;;;;;;-145.68;41.38;71969.00;10470225;28;20202;-68
2023/10/14 01:05:58;;;;;;;6.78;3.22;;;;;;;-145.68;41.46;71985.00;10471148;28;20720;-68
2023/10/14 01:10:58;;;;;;;11.30;3.05;;;;;;;-145.68;41.03;71969.00;10471275;28;20219;-68
2023/10/14 01:16:08;;;;;;;7.95;3.17;;;;;;;-145.68;41.15;71969.00;10472318;28;20244;-68
2023/10/14 01:21:09;;;;;;;9.80;2.63;;;;;;;-145.68;40.78;71969.00;10479822;28;20195;-68
2023/10/14 01:26:10;;;;;;;6.15;2.72;;;;;;;-145.68;40.43;71949.03;10477925;28;20361;-68
2023/10/14 01:31:34;;;;;;;5.70;2.88;;;;;;;-145.68;40.71;71969.00;10479300;28;20215;-68
2023/10/14 01:36:40;;;;;;;9.43;2.88;;;;;;;-145.68;40.68;71965.00;10477027;28;20215;-68
2023/10/14 01:41:41;;;;;;;7.57;3.20;;;;;;;-145.68;40.71;71943.03;10479246;28;20848;-68
2023/10/14 01:46:42;;;;;;;5.95;3.15;;;;;;;-145.68;40.96;71955.03;10478472;28;20218;-68
2023/10/14 01:51:46;;;;;;;5.57;2.90;;;;;;;-145.68;41.04;71937.03;10473367;28;20219;-68
2023/10/14 01:56:46;;;;;;;7.75;3.00;;;;;;;-145.68;41.11;71961.03;10477255;28;20258;-67
2023/10/14 02:01:47;;;;;;;5.38;3.15;;;;;;;-145.68;41.26;71941.03;10477143;28;20279;-67
2023/10/14 02:07:03;;;;;;;8.57;3.20;;;;;;;-145.68;41.82;71971.00;10478195;28;20246;-68
2023/10/14 02:12:05;;;;;;;10.98;3.17;;;;;;;-145.68;42.10;71957.03;10477845;28;20630;-68
2023/10/14 02:17:05;;;;;;;9.00;2.92;;;;;;;-145.68;42.63;71967.00;10477541;28;20199;-68
2023/10/14 02:22:09;;;;;;;6.18;2.78;;;;;;;-145.68;43.03;71975.00;10476143;28;20233;-67
2023/10/14 02:27:13;;;;;;;10.23;3.45;;;;;;;-145.68;43.50;71985.00;10483628;22;20228;-64
2023/10/14 02:32:13;;;;;;;6.45;2.80;;;;;;;-145.68;43.56;71989.00;10432681;28;20208;-64
2023/10/14 02:37:14;;;;;;;9.02;3.15;;;;;;;-145.68;44.07;72000.97;10414086;28;20837;-64
2023/10/14 02:42:14;;;;;;;9.48;2.97;;;;;;;-145.68;44.44;71996.97;10436023;28;20184;-64
2023/10/14 02:47:17;;;;;;;6.68;2.88;;;;;;;-145.68;44.84;72016.97;10438895;28;20212;-64
2023/10/14 02:52:18;;;;;;;8.85;3.08;;;;;;;-145.68;44.95;71996.97;10436215;28;20250;-64
2023/10/14 03:07:28;;;;;;;7.35;3.60;;;;;;;-145.68;45.62;71971.00;10435669;28;20207;-64
2023/10/14 03:12:28;;;;;;;8.35;4.00;;;;;;;-145.68;45.73;71945.03;10423293;28;20228;-64
2023/10/14 03:17:42;;;;;;;9.98;3.78;;;;;;;-145.68;45.83;71923.06;10435347;28;20227;-64
2023/10/14 03:22:44;;;;;;;12.75;4.20;;;;;;;-145.68;45.90;71917.06;10431671;28;20659;-65
2023/10/14 03:27:44;;;;;;;7.30;4.38;;;;;;;-145.68;46.16;71929.06;10435146;28;20239;-64
2023/10/14 03:32:45;;;;;;;10.32;3.92;;;;;;;-145.68;46.15;71911.06;10434616;28;20578;-65
2023/10/14 03:37:52;;;;;;;6.05;3.15;;;;;;;-145.68;46.16;71915.06;10434928;28;20641;-65
2023/10/14 03:42:54;;;;;;;6.32;3.85;;;;;;;-145.68;45.94;71913.06;10434059;28;20208;-65
2023/10/14 03:48:00;;;;;;;10.52;3.92;;;;;;;-145.68;45.83;71903.06;10434314;28;20208;-65
2023/10/14 03:53:00;;;;;;;8.15;3.75;;;;;;;-145.68;45.93;71903.06;10434139;28;20192;-65
2023/10/14 03:58:04;;;;;;;10.52;3.88;;;;;;;-145.68;45.64;71877.09;10433744;28;20219;-65
2023/10/14 04:03:24;;;;;;;12.95;4.38;;;;;;;-145.68;45.83;71885.09;10433826;28;20670;-65
2023/10/14 04:08:39;;;;;;;10.25;3.53;;;;;;;-145.68;45.85;71877.09;10416013;28;20584;-65
2023/10/14 04:13:52;;;;;;;13.20;4.22;;;;;;;-145.68;45.73;71873.09;10433203;28;20196;-65
2023/10/14 04:18:52;;;;;;;16.02;4.05;;;;;;;-145.68;45.97;71881.09;10428680;28;20216;-65
2023/10/14 04:29:34;;;;;;;12.40;4.43;;;;;;;-145.68;46.31;71881.09;10431997;28;20297;-64
2023/10/14 04:34:35;;;;;;;9.93;4.30;;;;;;;-145.68;46.72;71899.09;10432238;28;20254;-64
2023/10/14 04:39:42;;;;;;;13.63;4.57;;;;;;;-145.68;46.82;71913.06;10432456;28;20208;-64
2023/10/14 04:44:54;;;;;;;12.45;4.43;;;;;;;-145.68;47.58;71937.03;10433180;28;20196;-65
2023/10/14 04:49:56;;;;;;;12.05;4.22;;;;;;;-145.68;47.85;71957.03;10432014;28;20598;-65
2023/10/14 04:55:19;;;;;;;11.35;4.15;;;;;;;-145.68;47.87;71953.03;10432044;28;20625;-65
2023/10/14 05:00:31;;;;;;;10.38;3.78;;;;;;;-145.68;47.74;71951.03;10429429;28;20196;-65
2023/10/14 05:05:33;;;;;;;8.48;4.25;;;;;;;-145.68;47.75;71957.03;10431777;28;20566;-65
2023/10/14 05:10:33;;;;;;;10.65;4.50;;;;;;;-145.68;47.78;71973.00;10425527;28;20212;-63
2023/10/14 05:15:39;;;;;;;8.77;3.83;;;;;;;-145.68;47.69;71967.00;10428963;28;20196;-64
2023/10/14 05:21:42;;;;;;;14.20;4.28;;;;;;;-145.68;47.76;71979.00;10431670;28;20243;-65
2023/10/14 05:26:14;;;;;;;16.40;4.50;;;;;;;-145.68;48.15;71993.00;10417331;28;20329;-65
2023/10/14 05:31:16;;;;;;;9.00;4.10;;;;;;;-145.68;48.49;72016.97;10428735;28;20758;-63
2023/10/14 05:36:16;;;;;;;9.95;3.80;;;;;;;-145.68;48.62;71993.00;10431016;28;20617;-65
2023/10/14 05:41:16;;;;;;;7.50;3.90;;;;;;;-145.68;48.88;72006.97;10430942;28;20200;-65
2023/10/14 05:46:17;;;;;;;10.52;4.15;;;;;;;-145.68;49.26;72028.94;10430619;28;20303;-65
2023/10/14 05:51:18;;;;;;;10.57;4.82;;;;;;;-145.68;49.63;72038.94;10425105;28;20208;-65
2023/10/14 05:56:19;;;;;;;13.73;4.63;;;;;;;-145.68;50.06;72072.91;10423202;28;20265;-65
2023/10/14 06:01:19;;;;;;;9.73;4.05;;;;;;;-145.68;49.93;72072.91;10423547;28;20249;-65
2023/10/14 06:06:21;;;;;;;11.02;4.15;;;;;;;-145.68;50.08;72088.91;10428468;28;20556;-65
2023/10/14 06:11:22;;;;;;;10.43;4.20;;;;;;;-145.68;50.30;72096.88;10436554;28;20218;-65
2023/10/14 06:16:25;;;;;;;13.35;4.90;;;;;;;-145.68;50.59;72116.88;10437871;28;20569;-66
2023/10/14 06:21:28;;;;;;;8.02;4.03;;;;;;;-145.68;50.47;72112.88;10436168;28;20556;-66
2023/10/14 06:26:29;;;;;;;14.02;4.82;;;;;;;-145.68;50.76;72116.88;10437286;28;20774;-66
2023/10/14 06:31:29;;;;;;;14.23;4.68;;;;;;;-145.68;50.66;72110.88;10433672;28;20230;-66
2023/10/14 06:36:29;;;;;;;11.52;3.83;;;;;;;-145.68;50.55;72096.88;10437302;28;20269;-65
2023/10/14 06:41:30;;;;;;;13.52;4.32;;;;;;;-145.68;50.78;72104.88;10432678;28;20219;-65
2023/10/14 06:46:30;;;;;;;10.25;4.57;;;;;;;-145.68;51.13;72106.88;10422276;28;20281;-65
2023/10/14 06:51:31;;;;;;;10.65;3.80;;;;;;;-145.68;50.84;72076.91;10435611;28;20223;-66
2023/10/14 06:56:33;;;;;;;9.52;4.20;;;;;;;-145.68;50.91;72064.91;10434898;28;20211;-65
2023/10/14 07:01:34;;;;;;;14.57;4.40;;;;;;;-145.68;51.08;72076.91;10433359;28;20589;-66
2023/10/14 07:06:37;;;;;;;14.40;4.60;;;;;;;-145.68;51.78;72082.91;10429269;28;20220;-65
2023/10/14 07:11:39;;;;;;;14.55;4.57;;;;;;;-145.68;51.44;72070.91;10434309;28;20228;-65
2023/10/14 07:16:40;;;;;;;9.95;4.25;;;;;;;-145.68;51.62;72072.91;10433022;28;20218;-65
2023/10/14 07:21:40;;;;;;;10.10;4.55;;;;;;;-145.68;51.77;72080.91;10433591;28;20655;-65
2023/10/14 07:26:41;;;;;;;6.68;4.00;;;;;;;-145.68;51.39;72066.91;10425462;28;20236;-65
2023/10/14 07:31:41;;;;;;;12.75;4.38;;;;;;;-145.68;51.51;72030.94;10430841;28;20217;-66
2023/10/14 07:36:41;;;;;;;17.40;4.07;;;;;;;-145.68;50.94;71983.00;10425135;28;20216;-65
2023/10/14 07:41:42;;;;;;;11.27;4.60;;;;;;;-145.68;51.38;72034.94;10429225;28;20196;-65
2023/10/14 07:46:42;;;;;;;9.20;4.03;;;;;;;-145.68;51.58;72046.94;10428784;28;20216;-66
2023/10/14 07:51:42;;;;;;;13.77;3.95;;;;;;;-145.68;52.52;72066.91;10430567;28;20213;-66
2023/10/14 07:56:46;;;;;;;8.60;3.70;;;;;;;-145.68;52.73;72076.91;10432842;28;20213;-66
2023/10/14 08:01:47;;;;;;;9.48;4.22;;;;;;;-145.68;52.89;72098.88;10425668;28;20207;-66
2023/10/14 08:06:47;;;;;;;7.28;3.35;;;;;;;-145.68;55.15;72204.78;10423814;28;20226;-66
2023/10/14 08:11:47;;;;;;;3.58;1.35;;;;;;;-145.68;68.38;72468.56;10432906;28;20228;-65
2023/10/14 08:16:48;;;;;;;2.00;1.15;;;;;;;-145.68;94.94;72676.38;10422817;28;20219;-64
2023/10/14 08:21:50;;;;;;;0.80;0.80;;;;;;;-145.68;100.00;72734.31;10415875;28;20200;-64
2023/10/14 08:26:50;;;;;;;0.88;0.88;;;;;;;-145.68;100.00;72780.28;10407758;28;20844;-64
2023/10/14 08:31:53;;;;;;;1.85;0.80;;;;;;;-145.68;100.00;72802.28;10420029;28;20240;-63
2023/10/14 08:36:56;;;;;;;0.60;0.60;;;;;;;-145.68;100.00;72844.25;10463256;22;20249;-69
2023/10/14 08:41:58;;;;;;;1.58;0.70;;;;;;;-145.68;100.00;72872.22;10458813;28;20200;-69
2023/10/14 08:46:59;;;;;;;0.85;0.85;;;;;;;-145.68;100.00;72904.19;10422800;28;20261;-69
2023/10/14 08:52:01;;;;;;;0.63;0.60;;;;;;;-145.68;100.00;72958.16;10444343;28;20219;-69
2023/10/14 08:57:01;;;;;;;2.53;0.50;;;;;;;-145.68;100.00;73014.13;10466323;28;20226;-69
2023/10/14 09:02:02;;;;;;;0.45;0.40;;;;;;;-145.68;100.00;73044.09;10465089;28;20218;-68
2023/10/14 09:07:03;;;;;;;0.60;0.60;;;;;;;-145.68;100.00;73116.03;10460746;28;21650;-69
2023/10/14 09:12:11;;;;;;;0.52;0.52;;;;;;;-145.68;100.00;73213.97;10450187;28;20211;-69
2023/10/14 09:17:12;;;;;;;1.20;0.80;;;;;;;-145.68;100.00;73241.97;10451433;28;20939;-69
2023/10/14 09:22:25;;;;;;;0.70;0.65;;;;;;;-145.68;100.00;73267.94;10464811;28;20193;-69
2023/10/14 09:27:26;;;;;;;2.17;0.70;;;;;;;-145.68;100.00;73283.94;10473296;28;20218;-70
2023/10/14 09:32:27;;;;;;;1.10;0.50;;;;;;;-145.68;100.00;73307.91;10474038;28;20214;-71
2023/10/14 09:37:27;;;;;;;0.50;0.50;;;;;;;-145.68;100.00;73315.91;10473948;28;20301;-69
2023/10/14 09:42:28;;;;;;;1.10;0.60;;;;;;;-145.68;100.00;73321.91;10473981;28;20199;-69
2023/10/14 09:47:30;;;;;;;0.50;0.50;;;;;;;-145.68;100.00;73299.91;10481001;28;20230;-71
2023/10/14 09:52:30;;;;;;;0.50;0.50;;;;;;;-145.68;100.00;73309.91;10479067;28;20215;-72
2023/10/14 09:57:31;;;;;;;0.98;0.70;;;;;;;-145.68;100.00;73313.91;10468169;28;20294;-72
2023/10/14 10:02:32;;;;;;;0.80;0.80;;;;;;;-145.68;100.00;73295.94;10451779;28;20191;-71
2023/10/14 10:07:41;;;;;;;0.90;0.85;;;;;;;-145.68;100.00;73313.91;10474674;28;20263;-71
2023/10/14 10:12:45;;;;;;;1.35;0.80;;;;;;;-145.68;100.00;73297.91;10439436;28;20254;-69
2023/10/14 10:18:05;;;;;;;1.90;0.90;;;;;;;-145.68;100.00;73251.94;10464960;28;20203;-69
2023/10/14 10:23:06;;;;;;;2.72;1.30;;;;;;;-145.68;100.00;73221.97;10478322;28;20211;-71
2023/10/14 10:28:28;;;;;;;2.28;1.00;;;;;;;-145.68;100.00;73184.00;10478664;28;20278;-70
2023/10/14 10:34:00;;;;;;;4.00;1.42;;;;;;;-145.68;100.00;73052.09;10475159;28;20284;-72
2023/10/14 10:39:17;;;;;;;2.08;1.13;;;;;;;-145.68;100.00;73042.09;10478013;28;20378;-72
2023/10/14 10:44:18;;;;;;;4.40;1.33;;;;;;;-145.68;97.50;73112.03;10476392;28;20590;-70
2023/10/14 10:49:58;;;;;;;4.20;1.25;;;;;;;-145.68;93.62;73072.06;10477438;28;20249;-70
2023/10/14 10:54:59;;;;;;;2.80;1.40;;;;;;;-145.68;90.98;73088.06;10475413;28;20215;-70
2023/10/14 10:59:59;;;;;;;3.30;1.30;;;;;;;-145.68;89.87;73038.09;10478192;28;21078;-70
2023/10/14 11:05:00;;;;;;;5.63;1.42;;;;;;;-145.68;80.16;72858.22;10477601;28;20218;-71
2023/10/14 11:10:00;;;;;;;8.70;1.85;;;;;;;-145.68;69.26;72734.31;10477802;28;20223;-72
2023/10/14 11:15:00;;;;;;;3.08;1.40;;;;;;;-145.68;68.84;72706.34;10476366;28;20219;-73
2023/10/14 11:20:05;;;;;;;2.45;1.27;;;;;;;-145.68;64.27;72614.44;10459806;28;20228;-71
2023/10/14 11:25:07;;;;;;;4.90;1.20;;;;;;;-145.68;62.09;72642.41;10458534;28;20219;-71
2023/10/14 11:30:11;;;;;;;4.88;1.40;;;;;;;-145.68;60.69;72760.31;10480354;28;20211;-73
2023/10/14 11:35:16;;;;;;;7.72;1.50;;;;;;;-145.68;62.77;72886.22;10462603;28;20249;-71
2023/10/14 11:40:16;;;;;;;6.68;1.50;;;;;;;-145.68;61.95;72962.16;10476399;28;20237;-69
2023/10/14 11:45:17;;;;;;;5.45;1.55;;;;;;;-145.68;63.90;73038.09;10476743;28;20299;-69
2023/10/14 11:50:18;;;;;;;4.65;1.70;;;;;;;-145.68;66.84;73088.06;10476900;28;20245;-69
2023/10/14 11:55:20;;;;;;;5.43;1.60;;;;;;;-145.68;67.89;73080.06;10476377;28;20210;-68
2023/10/14 12:00:21;;;;;;;9.23;2.08;;;;;;;-145.68;70.42;73128.03;10475956;28;20705;-69
2023/10/14 12:05:22;;;;;;;3.17;1.33;;;;;;;-145.68;70.12;73136.03;10475933;28;20237;-69
2023/10/14 12:10:26;;;;;;;4.43;1.40;;;;;;;-145.68;72.15;73170.00;10457884;28;20218;-69
2023/10/14 12:15:28;;;;;;;6.82;1.70;;;;;;;-145.68;72.89;73176.00;10475761;28;20206;-69
2023/10/14 12:20:31;;;;;;;7.32;2.05;;;;;;;-145.68;75.50;73200.00;10475409;28;20192;-69
2023/10/14 12:25:31;;;;;;;7.72;1.67;;;;;;;-145.68;76.78;73243.97;10475297;28;20207;-68
2023/10/14 12:30:46;;;;;;;7.07;1.70;;;;;;;-145.68;75.61;73251.94;10457232;28;20223;-69
2023/10/14 12:35:51;;;;;;;8.32;1.88;;;;;;;-145.68;72.04;73217.97;10472084;28;20713;-68
2023/10/14 12:40:51;;;;;;;6.13;1.40;;;;;;;-145.68;68.24;73056.09;10475130;28;20274;-69
2023/10/14 12:45:53;;;;;;;5.38;1.88;;;;;;;-145.68;63.90;73026.09;10474871;28;20704;-70
2023/10/14 12:50:53;;;;;;;4.20;1.67;;;;;;;-145.68;61.50;72954.16;10474749;28;20220;-69
2023/10/14 12:55:54;;;;;;;7.05;1.73;;;;;;;-145.68;61.81;72980.13;10474626;28;20220;-69
2023/10/14 13:00:54;;;;;;;5.97;1.77;;;;;;;-145.68;64.08;73004.13;10474245;28;20192;-69
2023/10/14 13:05:55;;;;;;;9.05;1.90;;;;;;;-145.68;64.36;73068.06;10474793;28;20703;-69
2023/10/14 13:10:55;;;;;;;4.30;1.48;;;;;;;-145.68;66.45;73144.03;10475069;28;20606;-69
2023/10/14 13:15:56;;;;;;;6.80;1.88;;;;;;;-145.68;67.94;73158.00;10482938;28;20211;-69
2023/10/14 13:20:58;;;;;;;11.93;2.10;;;;;;;-145.68;70.83;73265.94;10482167;28;20257;-69
2023/10/14 13:25:58;;;;;;;5.47;1.88;;;;;;;-145.68;69.06;73198.00;10482598;28;20225;-69
2023/10/14 13:31:00;;;;;;;9.27;1.77;;;;;;;-145.68;70.00;73213.97;10482229;28;20717;-69
2023/10/14 13:36:00;;;;;;;6.40;1.50;;;;;;;-145.68;72.04;73275.94;10466161;28;20237;-69
2023/10/14 13:41:03;;;;;;;5.90;1.40;;;;;;;-145.68;64.43;73239.97;10473278;28;20187;-69
2023/10/14 13:46:04;;;;;;;5.55;1.63;;;;;;;-145.68;61.54;73253.94;10463802;28;20211;-70
2023/10/14 13:51:05;;;;;;;6.20;1.75;;;;;;;-145.68;61.68;73223.97;10478650;28;20215;-68
2023/10/14 13:56:10;;;;;;;6.57;1.73;;;;;;;-145.68;59.03;73239.97;10480748;28;20203;-68
2023/10/14 14:01:11;;;;;;;5.72;1.60;;;;;;;-145.68;60.27;73227.97;10481089;28;20194;-67
2023/10/14 14:06:12;;;;;;;6.05;1.88;;;;;;;-145.68;61.06;73311.91;10478688;28;20592;-70
2023/10/14 14:11:12;;;;;;;5.85;1.88;;;;;;;-145.68;61.55;73299.91;10478769;28;20239;-70
2023/10/14 14:16:12;;;;;;;9.93;2.17;;;;;;;-145.68;61.73;73249.94;10480305;28;20203;-69
2023/10/14 14:21:13;;;;;;;49.08;5.65;;;;;;;-145.68;61.64;73233.97;10480634;28;20191;-69
2023/10/14 14:26:18;;;;;;;5.85;2.10;;;;;;;-145.68;61.81;73225.97;10479323;28;20211;-69
2023/10/14 14:31:20;;;;;;;5.97;1.83;;;;;;;-145.68;61.38;73249.94;10477478;28;20257;-70
2023/10/14 14:36:20;;;;;;;30.08;3.92;;;;;;;-145.68;63.22;73371.88;10494977;22;20296;-65
2023/10/14 14:41:25;;;;;;;7.32;2.03;;;;;;;-145.68;64.53;73411.84;10478407;28;20199;-66
2023/10/14 14:46:29;;;;;;;10.80;2.03;;;;;;;-145.68;65.71;73415.84;10479665;28;20210;-65
2023/10/14 14:51:29;;;;;;;10.20;2.00;;;;;;;-145.68;64.30;73341.91;10479482;28;20231;-65
2023/10/14 14:56:30;;;;;;;7.53;2.17;;;;;;;-145.68;60.71;73104.06;10478909;28;20222;-65
2023/10/14 15:01:31;;;;;;;8.35;1.45;;;;;;;-145.68;56.37;72996.13;10479248;28;20199;-66
2023/10/14 15:06:31;;;;;;;6.07;1.77;;;;;;;-145.68;56.65;73066.09;10478791;28;20222;-66
2023/10/14 15:11:32;;;;;;;6.30;1.77;;;;;;;-145.68;56.38;73046.09;10478603;28;20211;-66
2023/10/14 15:16:32;;;;;;;9.02;2.38;;;;;;;-145.68;59.29;73279.94;10478338;28;20257;-65
2023/10/14 15:21:33;;;;;;;16.42;4.80;;;;;;;-145.68;61.22;73307.91;10478334;28;20188;-65
2023/10/14 15:26:33;;;;;;;6.70;1.83;;;;;;;-145.68;63.36;73321.91;10478318;28;20229;-65
2023/10/14 15:31:34;;;;;;;8.60;2.03;;;;;;;-145.68;63.00;73299.91;10477476;28;20573;-65
2023/10/14 15:36:35;;;;;;;7.47;2.65;;;;;;;-145.68;62.68;73317.91;10476595;28;20238;-65
2023/10/14 15:41:35;;;;;;;8.27;2.00;;;;;;;-145.68;64.77;73391.84;10477552;28;20200;-65
2023/10/14 15:46:36;;;;;;;6.70;2.88;;;;;;;-145.68;66.12;73435.84;10477373;28;20222;-65
2023/10/14 15:51:36;;;;;;;6.57;2.08;;;;;;;-145.68;67.04;73461.81;10476603;28;20216;-65
2023/10/14 15:56:38;;;;;;;9.43;2.58;;;;;;;-145.68;67.21;73475.81;10476135;28;20638;-66
2023/10/14 16:01:38;;;;;;;12.80;3.72;;;;;;;-145.68;70.24;73497.78;10475792;28;20249;-66
2023/10/14 16:06:39;;;;;;;17.90;7.55;;;;;;;-145.68;72.49;73547.75;10475805;28;20218;-65
2023/10/14 16:11:39;;;;;;;44.35;11.73;;;;;;;-145.68;77.57;73635.72;10475178;28;20216;-65
2023/10/14 16:16:40;;;;;;;68.00;21.13;;;;;;;-145.68;85.22;73691.69;10475314;28;20200;-65
2023/10/14 16:21:40;;;;;;;10.93;3.75;;;;;;;-145.68;87.31;73679.69;10467543;28;20211;-65
2023/10/14 16:26:41;;;;;;;11.60;2.40;;;;;;;-145.68;89.97;73693.69;10474786;28;20216;-65
2023/10/14 16:31:43;;;;;;;13.00;3.77;;;;;;;-145.68;91.40;73711.66;10474229;28;20228;-65
2023/10/14 16:36:45;;;;;;;13.87;5.97;;;;;;;-145.68;90.14;73717.66;10474426;28;20243;-65
2023/10/14 16:41:47;;;;;;;9.97;4.20;;;;;;;-145.68;88.84;73723.66;10474388;28;20215;-65
2023/10/14 16:46:47;;;;;;;7.53;3.10;;;;;;;-145.68;89.20;73727.66;10473744;28;20270;-66
2023/10/14 16:51:48;;;;;;;18.10;10.03;;;;;;;-145.68;89.56;73757.66;10474518;28;20269;-65
2023/10/14 16:56:48;;;;;;;15.37;4.80;;;;;;;-145.68;88.52;73805.63;10474020;28;20297;-65
2023/10/14 17:01:49;;;;;;;33.03;24.33;;;;;;;-145.68;90.84;73825.63;10473991;28;20188;-66
2023/10/14 17:06:51;;;;;;;13.80;7.87;;;;;;;-145.68;93.73;73877.59;10473512;28;20265;-66
2023/10/14 17:11:52;;;;;;;11.50;5.60;;;;;;;-145.68;95.33;73919.56;10473743;28;20219;-66
2023/10/14 17:16:53;;;;;;;4.63;2.77;;;;;;;-145.68;94.89;73915.56;10473525;28;20228;-66
2023/10/14 17:21:53;;;;;;;11.53;3.47;;;;;;;-145.68;97.23;73967.53;10473515;28;20195;-66
2023/10/14 17:26:54;;;;;;;17.13;7.47;;;;;;;-145.68;100.00;74023.50;10472993;28;20218;-66
2023/10/14 17:31:59;;;;;;;8.87;2.50;;;;;;;-145.68;100.00;74039.50;10473246;28;20215;-66
2023/10/14 17:36:59;;;;;;;12.70;6.27;;;;;;;-145.68;100.00;74047.50;10468024;28;20235;-65
2023/10/14 17:42:00;;;;;;;40.17;19.60;;;;;;;-145.68;100.00;74087.47;10473193;28;20586;-65
2023/10/14 17:47:00;;;;;;;8.10;4.60;;;;;;;-145.68;100.00;74101.47;10472953;28;20223;-65
2023/10/14 17:52:00;;;;;;;11.20;4.40;;;;;;;-145.68;100.00;74127.47;10472873;28;20703;-65
2023/10/14 17:57:01;;;;;;;8.80;3.53;;;;;;;-145.68;100.00;74135.47;10472443;28;20574;-66
2023/10/14 18:02:01;;;;;;;12.63;3.23;;;;;;;-145.68;100.00;74135.47;10480175;28;20200;-65
2023/10/14 18:07:02;;;;;;;6.20;2.20;;;;;;;-145.68;100.00;74149.47;10480470;28;20217;-65
2023/10/14 18:12:03;;;;;;;6.13;2.40;;;;;;;-145.68;100.00;74179.44;10479988;28;20214;-65
2023/10/14 18:17:04;;;;;;;10.93;2.67;;;;;;;-145.68;100.00;74175.44;10478994;28;20207;-65
2023/10/14 18:22:05;;;;;;;9.17;3.07;;;;;;;-145.68;100.00;74169.44;10479394;28;20195;-65
2023/10/14 18:27:05;;;;;;;11.43;3.70;;;;;;;-145.68;100.00;74205.44;10479157;28;20222;-65
2023/10/14 18:32:06;;;;;;;19.83;5.57;;;;;;;-145.68;100.00;74191.44;10478389;28;20219;-65
2023/10/14 18:37:06;;;;;;;13.73;3.40;;;;;;;-145.68;100.00;74175.44;10478586;28;20241;-65
2023/10/14 18:42:08;;;;;;;11.63;4.00;;;;;;;-145.68;100.00;74159.44;10478342;28;20201;-65
2023/10/14 18:47:08;;;;;;;6.03;2.90;;;;;;;-145.68;100.00;74169.44;10478200;28;20226;-65
2023/10/14 18:52:09;;;;;;;9.53;3.10;;;;;;;-145.68;100.00;74181.44;10477811;28;20207;-65
2023/10/14 18:57:10;;;;;;;13.33;5.13;;;;;;;-145.68;100.00;74221.44;10478116;28;20206;-65
2023/10/14 19:02:10;;;;;;;7.63;2.60;;;;;;;-145.68;100.00;74193.44;10477822;28;20187;-65
2023/10/14 19:07:14;;;;;;;12.33;4.27;;;;;;;-145.68;100.00;74195.44;10476477;28;20215;-65
2023/10/14 19:12:15;;;;;;;8.50;2.20;;;;;;;-145.68;100.00;74157.44;10475796;28;20228;-65
2023/10/14 19:17:15;;;;;;;11.77;2.70;;;;;;;-145.68;100.00;74159.44;10477050;28;20572;-65
2023/10/14 19:22:15;;;;;;;5.57;2.50;;;;;;;-145.68;100.00;74185.44;10477287;28;20195;-65
2023/10/14 19:27:17;;;;;;;13.07;2.77;;;;;;;-145.68;100.00;74201.44;10476854;28;20211;-65
2023/10/14 19:32:17;;;;;;;10.07;2.57;;;;;;;-145.68;100.00;74167.44;10476291;28;20219;-66
2023/10/14 19:37:18;;;;;;;6.13;2.47;;;;;;;-145.68;100.00;74181.44;10476331;28;20300;-65
2023/10/14 19:42:19;;;;;;;7.07;2.50;;;;;;;-145.68;100.00;74189.44;10476312;28;20265;-65
2023/10/14 19:47:19;;;;;;;15.80;3.10;;;;;;;-145.68;100.00;74209.44;10475973;28;20214;-65
2023/10/14 19:52:19;;;;;;;9.13;2.67;;;;;;;-145.68;100.00;74203.44;10475815;28;20211;-65
2023/10/14 19:57:20;;;;;;;4.43;1.83;;;;;;;-145.68;93.53;74149.47;10475798;28;20252;-65
2023/10/14 20:02:21;;;;;;;7.93;2.63;;;;;;;-145.68;89.79;74145.47;10453105;28;20194;-64
2023/10/14 20:07:23;;;;;;;8.93;2.20;;;;;;;-145.68;85.70;74131.47;10472405;28;20708;-65
2023/10/14 20:12:23;;;;;;;7.57;2.47;;;;;;;-145.68;82.25;74111.47;10476416;28;20581;-65
2023/10/14 20:17:24;;;;;;;11.53;2.97;;;;;;;-145.68;81.63;74123.47;10473029;28;20206;-65
2023/10/14 20:22:24;;;;;;;7.97;2.60;;;;;;;-145.68;81.59;74123.47;10472264;28;20184;-66
2023/10/14 20:27:24;;;;;;;10.00;2.23;;;;;;;-145.68;80.08;74103.47;10461013;28;20222;-65
2023/10/14 20:32:25;;;;;;;10.50;2.40;;;;;;;-145.68;79.05;74087.47;10459569;28;20684;-65
2023/10/14 20:37:26;;;;;;;6.53;2.17;;;;;;;-145.68;78.35;74073.50;10464280;28;20228;-64
2023/10/14 20:42:27;;;;;;;9.27;2.70;;;;;;;-145.68;77.24;74075.50;10463220;28;20237;-65
2023/10/14 20:47:28;;;;;;;4.33;2.07;;;;;;;-145.68;77.89;74071.50;10479743;22;20675;-71
2023/10/14 20:52:28;;;;;;;7.13;2.20;;;;;;;-145.68;78.12;74065.50;10472403;28;20277;-70
2023/10/14 20:57:30;;;;;;;6.37;2.00;;;;;;;-145.68;78.12;74059.50;10475627;28;20269;-70
2023/10/14 21:02:31;;;;;;;7.77;2.13;;;;;;;-145.68;77.97;74063.50;10472853;28;20724;-70
2023/10/14 21:07:31;;;;;;;8.47;2.13;;;;;;;-145.68;78.88;74095.47;10469370;28;20214;-70
2023/10/14 21:12:33;;;;;;;11.63;2.47;;;;;;;-145.68;79.79;74119.47;10475425;28;20211;-70
2023/10/14 21:17:36;;;;;;;6.87;2.27;;;;;;;-145.68;80.82;74125.47;10475306;28;20211;-70
2023/10/14 21:22:37;;;;;;;8.13;2.17;;;;;;;-145.68;81.55;74135.47;10475471;28;20200;-70
2023/10/14 21:27:42;;;;;;;4.03;1.87;;;;;;;-145.68;82.64;74141.47;10474707;28;20222;-70
2023/10/14 21:32:49;;;;;;;8.47;2.17;;;;;;;-145.68;82.79;74129.47;10465646;28;20265;-70
2023/10/14 21:37:49;;;;;;;5.37;2.03;;;;;;;-145.68;82.78;74125.47;10483656;28;20261;-70
2023/10/14 21:42:51;;;;;;;7.37;2.30;;;;;;;-145.68;82.64;74119.47;10482268;28;20189;-70
2023/10/14 21:47:52;;;;;;;6.50;2.17;;;;;;;-145.68;81.79;74117.47;10482725;28;20270;-70
2023/10/14 21:52:53;;;;;;;8.00;2.33;;;;;;;-145.68;80.44;74127.47;10482680;28;20220;-70
2023/10/14 21:57:58;;;;;;;8.00;1.63;;;;;;;-145.68;80.33;74143.47;10482189;28;20616;-70
2023/10/14 22:02:58;;;;;;;8.60;2.10;;;;;;;-145.68;80.00;74131.47;10475197;28;20241;-70
2023/10/14 22:07:59;;;;;;;8.90;1.97;;;;;;;-145.68;79.77;74145.47;10481851;28;20207;-70
2023/10/14 22:13:00;;;;;;;8.43;1.70;;;;;;;-145.68;78.70;74139.47;10482234;28;20219;-70
2023/10/14 22:18:02;;;;;;;7.23;1.53;;;;;;;-145.68;78.63;74147.47;10481459;28;20214;-70
2023/10/14 22:23:06;;;;;;;5.03;1.57;;;;;;;-145.68;78.18;74161.44;10480941;28;20187;-70
2023/10/14 22:28:07;;;;;;;7.90;1.83;;;;;;;-145.68;78.25;74165.44;10481529;28;20715;-70
2023/10/14 22:33:08;;;;;;;6.17;1.77;;;;;;;-145.68;78.22;74181.44;10473848;28;20254;-70
2023/10/14 22:38:11;;;;;;;5.03;1.70;;;;;;;-145.68;78.95;74181.44;10480631;28;20207;-70
2023/10/14 22:43:11;;;;;;;9.53;2.10;;;;;;;-145.68;78.68;74173.44;10479980;28;20195;-70
2023/10/14 22:48:12;;;;;;;7.57;1.60;;;;;;;-145.68;78.39;74167.44;10479633;28;20672;-70
2023/10/14 22:53:12;;;;;;;7.93;1.80;;;;;;;-145.68;78.54;74183.44;10480119;28;20214;-70
2023/10/14 22:58:12;;;;;;;6.27;1.73;;;;;;;-145.68;78.56;74171.44;10479775;28;20208;-70
2023/10/14 23:03:13;;;;;;;3.87;1.63;;;;;;;-145.68;78.26;74197.44;10477302;28;20184;-70